Willsboro, New York
Current Conditions -  °F | °C
As of 9:54 AM on Wednesday 22 Oct 2014 (Local Time) from KBTV Reporting Station
Overcast Overcast  
Wind Chill: 44°   Ceiling: 500
Heat Index: 48°   Visibility: 10mi
Dew Point: 44°   Wind: 9mph
Humidity: 86%   Direction: 340°NNW
Pressure: 30.2"   Gusts: NA
Location:  44.36°N, 73.39°W
Report Text: KBTV 221354Z 34008KT 10SM OVC005 09/07 A3020 RMK AO2 SLP228 T00890067
Loading
Personal Weather Stations






























Interactive Weather Map New forecast layout! Learn more

10-Day Weather Forecast

Advertisements
Track Severe Weather on mobile